Time;durP1;ratioP1;P1;durP2;ratioP2;P2;SDS_P1;SDS_P2;PMS_P1;PMS_P2;Temp;Humidity;BMP_temperature;BMP_pressure;BME280_temperature;BME280_humidity;BME280_pressure;Samples;Min_cycle;Max_cycle;Signal;HPM_P1;HPM_P2
2023/11/27 00:02:23;;;;;;;20.80;13.27;;;5.70;99.90;;;;;;5080744;28;20031;-74
2023/11/27 00:04:50;;;;;;;22.50;13.40;;;5.60;99.90;;;;;;5075845;28;20430;-73
2023/11/27 00:07:15;;;;;;;23.20;14.02;;;5.60;99.90;;;;;;5072282;28;20355;-74
2023/11/27 00:09:41;;;;;;;22.65;13.63;;;5.60;99.90;;;;;;5078151;28;20154;-74
2023/11/27 00:12:07;;;;;;;23.52;14.77;;;5.60;99.90;;;;;;5080548;28;20036;-74
2023/11/27 00:14:33;;;;;;;25.60;14.82;;;5.60;99.90;;;;;;5039866;28;20038;-74
2023/11/27 00:16:59;;;;;;;23.90;14.68;;;5.60;99.90;;;;;;5074346;28;20478;-73
2023/11/27 00:19:24;;;;;;;26.38;14.82;;;5.60;99.90;;;;;;5083670;28;20029;-73
2023/11/27 00:21:50;;;;;;;28.20;15.07;;;5.60;99.90;;;;;;5079653;28;20034;-73
2023/11/27 00:24:16;;;;;;;25.08;15.38;;;5.60;99.90;;;;;;5075435;28;20032;-74
2023/11/27 00:26:41;;;;;;;20.33;14.40;;;5.50;99.90;;;;;;5082177;28;20657;-73
2023/11/27 00:29:07;;;;;;;25.08;14.07;;;5.60;99.90;;;;;;5083380;28;20115;-73
2023/11/27 00:31:33;;;;;;;24.05;14.73;;;5.60;99.90;;;;;;5075640;28;20495;-73
2023/11/27 00:33:58;;;;;;;23.17;14.75;;;5.60;99.90;;;;;;5077545;28;20029;-73
2023/11/27 00:36:25;;;;;;;26.85;15.35;;;5.60;99.90;;;;;;5083971;28;20032;-74
2023/11/27 00:38:51;;;;;;;28.23;15.40;;;5.60;99.90;;;;;;5058819;28;20037;-74
2023/11/27 00:41:17;;;;;;;20.90;14.38;;;5.60;99.90;;;;;;5060100;28;20029;-73
2023/11/27 00:43:44;;;;;;;27.25;15.43;;;5.60;99.90;;;;;;5051116;28;20024;-74
2023/11/27 00:46:10;;;;;;;29.13;16.17;;;5.60;99.90;;;;;;5069494;28;20108;-74
2023/11/27 00:48:36;;;;;;;27.73;16.33;;;5.60;99.90;;;;;;5068645;28;20067;-74
2023/11/27 00:51:03;;;;;;;26.67;15.68;;;5.60;99.90;;;;;;5069243;28;20565;-73
2023/11/27 00:53:29;;;;;;;27.80;15.88;;;5.60;99.90;;;;;;5068614;28;20055;-74
2023/11/27 00:55:54;;;;;;;28.02;15.43;;;5.60;99.90;;;;;;5051149;28;20056;-73
2023/11/27 00:58:20;;;;;;;24.90;15.35;;;5.60;99.90;;;;;;5058411;28;20032;-73
2023/11/27 01:00:46;;;;;;;30.48;14.52;;;5.60;99.90;;;;;;5069006;28;20107;-73
2023/11/27 01:03:11;;;;;;;23.00;13.65;;;5.60;99.90;;;;;;5068791;28;20016;-74
2023/11/27 01:05:38;;;;;;;26.60;13.73;;;5.60;99.90;;;;;;5054285;28;20029;-74
2023/11/27 01:08:04;;;;;;;25.88;12.77;;;5.60;99.90;;;;;;5067375;28;20023;-74
2023/11/27 01:10:31;;;;;;;23.30;12.48;;;5.60;99.90;;;;;;5068721;28;20025;-74
2023/11/27 01:12:57;;;;;;;23.40;12.48;;;5.60;99.90;;;;;;5068853;28;20468;-74
2023/11/27 01:15:23;;;;;;;23.63;12.23;;;5.60;99.90;;;;;;5068874;28;20021;-73
2023/11/27 01:17:49;;;;;;;20.17;11.73;;;5.60;99.90;;;;;;5050421;28;20059;-74
2023/11/27 01:20:15;;;;;;;24.33;11.48;;;5.60;99.90;;;;;;5068602;28;20029;-73
2023/11/27 01:22:41;;;;;;;23.17;11.73;;;5.60;99.90;;;;;;5068072;28;20033;-73
2023/11/27 01:25:07;;;;;;;19.23;11.52;;;5.60;99.90;;;;;;5068321;28;20482;-74
2023/11/27 01:27:33;;;;;;;20.63;11.30;;;5.60;99.90;;;;;;5068491;28;20056;-73
2023/11/27 01:30:01;;;;;;;21.10;11.60;;;5.70;99.90;;;;;;5068326;28;20055;-74
2023/11/27 01:32:27;;;;;;;20.48;10.70;;;5.60;99.90;;;;;;5068486;28;20021;-73
2023/11/27 01:34:53;;;;;;;21.67;10.63;;;5.60;99.90;;;;;;5067840;28;20016;-74
2023/11/27 01:37:19;;;;;;;18.65;10.50;;;5.60;99.90;;;;;;5059225;28;20029;-74
2023/11/27 01:39:45;;;;;;;24.77;11.43;;;5.60;99.90;;;;;;5053417;28;20041;-74
2023/11/27 01:42:11;;;;;;;23.08;10.38;;;5.60;99.90;;;;;;5068441;28;20031;-74
2023/11/27 01:44:40;;;;;;;15.68;9.70;;;5.60;99.90;;;;;;5049664;28;20024;-73
2023/11/27 01:47:07;;;;;;;20.75;10.32;;;5.60;99.90;;;;;;5068314;28;20113;-74
2023/11/27 01:49:33;;;;;;;18.23;10.23;;;5.50;99.90;;;;;;5067656;28;20083;-73
2023/11/27 01:52:00;;;;;;;21.88;9.90;;;5.50;99.90;;;;;;5067978;28;20024;-74
2023/11/27 01:54:29;;;;;;;18.50;9.40;;;5.50;99.90;;;;;;5067864;28;20519;-74
2023/11/27 01:56:57;;;;;;;18.92;10.00;;;5.50;99.90;;;;;;5068495;28;20031;-73
2023/11/27 01:59:24;;;;;;;24.77;10.40;;;5.50;99.90;;;;;;5067942;28;20024;-74
2023/11/27 02:01:50;;;;;;;20.50;9.65;;;5.50;99.90;;;;;;5067809;28;20035;-74
2023/11/27 02:04:16;;;;;;;18.60;9.55;;;5.50;99.90;;;;;;5067464;28;20016;-74
2023/11/27 02:06:41;;;;;;;19.85;9.45;;;5.50;99.90;;;;;;5067823;28;20028;-74
2023/11/27 02:09:10;;;;;;;22.15;10.80;;;5.40;99.90;;;;;;5067356;28;20025;-73
2023/11/27 02:11:47;;;;;;;22.70;9.63;;;5.50;99.90;;;;;;5067874;28;20036;-74
2023/11/27 02:14:15;;;;;;;20.27;10.18;;;5.50;99.90;;;;;;5067276;28;20008;-74
2023/11/27 02:16:43;;;;;;;18.25;11.20;;;5.40;99.90;;;;;;5067586;28;20104;-73
2023/11/27 02:19:09;;;;;;;17.75;11.02;;;5.40;99.90;;;;;;5067057;28;20037;-73
2023/11/27 02:21:34;;;;;;;22.70;10.27;;;5.40;99.90;;;;;;5067521;28;20027;-73
2023/11/27 02:24:00;;;;;;;22.02;11.15;;;5.40;99.90;;;;;;5067327;28;20028;-73
2023/11/27 02:26:26;;;;;;;22.08;11.27;;;5.40;99.90;;;;;;5067485;28;20111;-73
2023/11/27 02:28:51;;;;;;;24.10;11.13;;;5.40;99.90;;;;;;5066898;28;20032;-73
2023/11/27 02:31:17;;;;;;;19.48;10.15;;;5.40;99.90;;;;;;5067599;28;20020;-73
2023/11/27 02:33:43;;;;;;;22.73;10.65;;;5.40;99.90;;;;;;5059231;28;20504;-73
2023/11/27 02:36:09;;;;;;;17.02;10.85;;;5.40;99.90;;;;;;5047609;28;20028;-73
2023/11/27 02:38:36;;;;;;;20.70;10.32;;;5.40;99.90;;;;;;5059097;28;20151;-74
2023/11/27 02:41:02;;;;;;;22.52;10.27;;;5.40;99.90;;;;;;5060983;28;20152;-73
2023/11/27 02:43:28;;;;;;;24.70;11.05;;;5.40;99.90;;;;;;5066864;28;20036;-74
2023/11/27 02:45:55;;;;;;;19.60;10.55;;;5.30;99.90;;;;;;5067130;28;20103;-74
2023/11/27 02:48:21;;;;;;;23.80;10.95;;;5.30;99.90;;;;;;5054359;28;20033;-74
2023/11/27 02:50:47;;;;;;;20.95;10.50;;;5.30;99.90;;;;;;5066723;28;20028;-74
2023/11/27 02:53:14;;;;;;;18.40;11.48;;;5.30;99.90;;;;;;5066929;28;20397;-74
2023/11/27 02:55:40;;;;;;;20.60;10.80;;;5.30;99.90;;;;;;5066674;28;20504;-74
2023/11/27 02:58:07;;;;;;;23.42;11.32;;;5.30;99.90;;;;;;5066572;28;20020;-74
2023/11/27 03:00:33;;;;;;;25.27;11.45;;;5.30;99.90;;;;;;5066847;28;20025;-73
2023/11/27 03:02:59;;;;;;;26.50;10.90;;;5.30;99.90;;;;;;5066734;28;20024;-74
2023/11/27 03:05:25;;;;;;;24.83;12.10;;;5.30;99.90;;;;;;5066523;28;20039;-74
2023/11/27 03:07:50;;;;;;;24.00;11.60;;;5.30;99.90;;;;;;5066794;28;20545;-74
2023/11/27 03:10:17;;;;;;;21.73;10.52;;;5.30;99.90;;;;;;5066870;28;20036;-74
2023/11/27 03:12:43;;;;;;;22.58;11.32;;;5.30;99.90;;;;;;5066608;28;20020;-74
2023/11/27 03:15:09;;;;;;;23.27;11.60;;;5.30;99.90;;;;;;5057584;28;20106;-74
2023/11/27 03:17:37;;;;;;;24.00;11.75;;;5.20;99.90;;;;;;5066439;28;20028;-75
2023/11/27 03:20:04;;;;;;;26.73;12.70;;;5.20;99.90;;;;;;5066527;28;20371;-74
2023/11/27 03:22:30;;;;;;;23.30;12.40;;;5.30;99.90;;;;;;5066311;28;20051;-73
2023/11/27 03:24:56;;;;;;;24.75;11.48;;;5.20;99.90;;;;;;5066348;28;20482;-74
2023/11/27 03:27:22;;;;;;;25.73;12.23;;;5.20;99.90;;;;;;5066704;28;20078;-75
2023/11/27 03:29:48;;;;;;;24.67;12.15;;;5.20;99.90;;;;;;5065980;28;20019;-74
2023/11/27 03:32:14;;;;;;;26.33;11.57;;;5.20;99.90;;;;;;5066628;28;20028;-73
2023/11/27 03:34:40;;;;;;;25.95;11.10;;;5.20;99.90;;;;;;5065943;28;20027;-73
2023/11/27 03:37:06;;;;;;;26.45;11.95;;;5.20;99.90;;;;;;5066369;28;20025;-74
2023/11/27 03:39:32;;;;;;;23.05;11.65;;;5.20;99.90;;;;;;5051681;28;20045;-73
2023/11/27 03:41:58;;;;;;;20.27;11.63;;;5.20;99.90;;;;;;5060885;28;20950;-73
2023/11/27 03:44:23;;;;;;;21.55;11.70;;;5.20;99.90;;;;;;5066224;28;20467;-74
2023/11/27 03:46:49;;;;;;;20.60;12.35;;;5.20;99.90;;;;;;5034610;28;20031;-73
2023/11/27 03:49:14;;;;;;;23.90;11.95;;;5.10;99.90;;;;;;5066240;28;20040;-74
2023/11/27 03:51:40;;;;;;;23.17;11.82;;;5.20;99.90;;;;;;5066116;28;20109;-73
2023/11/27 03:54:07;;;;;;;19.92;12.02;;;5.10;99.90;;;;;;5069451;28;20108;-73
2023/11/27 03:56:32;;;;;;;24.90;12.50;;;5.10;99.90;;;;;;5070633;28;20017;-73
2023/11/27 03:58:58;;;;;;;20.85;10.75;;;5.10;99.90;;;;;;5070155;28;20027;-74
2023/11/27 04:01:23;;;;;;;19.92;10.57;;;5.20;99.90;;;;;;5070242;28;20032;-73
2023/11/27 04:03:49;;;;;;;19.23;10.75;;;5.10;99.90;;;;;;5069820;28;20047;-73
2023/11/27 04:06:35;;;;;;;22.08;11.25;;;5.10;99.90;;;;;;5070179;28;20075;-73
2023/11/27 04:09:01;;;;;;;19.02;10.45;;;5.10;99.90;;;;;;5069108;28;20068;-73
2023/11/27 04:11:27;;;;;;;20.42;10.48;;;5.10;99.90;;;;;;5070072;28;20048;-73
2023/11/27 04:13:56;;;;;;;25.98;10.75;;;5.10;99.90;;;;;;5069385;28;20508;-73
2023/11/27 04:16:22;;;;;;;19.35;9.70;;;5.10;99.90;;;;;;5070133;28;20103;-72
2023/11/27 04:18:48;;;;;;;15.80;9.48;;;5.20;99.90;;;;;;5069291;28;20107;-73
2023/11/27 04:21:18;;;;;;;21.08;9.38;;;5.20;99.90;;;;;;5069999;28;20035;-74
2023/11/27 04:23:48;;;;;;;18.58;9.50;;;5.10;99.90;;;;;;5069504;28;20076;-73
2023/11/27 04:26:14;;;;;;;15.73;8.95;;;5.10;99.90;;;;;;5069655;28;20016;-73
2023/11/27 04:28:41;;;;;;;18.55;9.50;;;5.20;99.90;;;;;;5069173;28;20482;-73
2023/11/27 04:31:08;;;;;;;15.82;9.35;;;5.10;99.90;;;;;;5051425;28;20097;-74
2023/11/27 04:33:34;;;;;;;18.80;10.30;;;5.10;99.90;;;;;;5069353;28;20107;-73
2023/11/27 04:36:00;;;;;;;18.77;9.18;;;5.10;99.90;;;;;;5069323;28;20031;-73
2023/11/27 04:38:26;;;;;;;17.52;9.38;;;5.10;99.90;;;;;;5052056;28;20045;-73
2023/11/27 04:40:51;;;;;;;16.13;9.65;;;5.10;99.90;;;;;;5052615;28;20375;-73
2023/11/27 04:43:17;;;;;;;18.15;9.70;;;5.10;99.90;;;;;;5069089;28;20021;-73
2023/11/27 04:45:43;;;;;;;16.05;9.38;;;5.10;99.90;;;;;;5069296;28;20782;-73
2023/11/27 04:48:08;;;;;;;14.07;9.93;;;5.10;99.90;;;;;;5069533;28;20027;-72
2023/11/27 04:50:34;;;;;;;16.38;9.07;;;5.00;99.90;;;;;;5068864;28;20375;-73
2023/11/27 04:53:00;;;;;;;16.95;9.13;;;5.00;99.90;;;;;;5069497;28;20051;-72
2023/11/27 04:55:25;;;;;;;17.25;9.30;;;5.00;99.90;;;;;;5068871;28;20055;-73
2023/11/27 04:57:51;;;;;;;14.73;9.02;;;5.00;99.90;;;;;;5068993;28;20111;-73
2023/11/27 05:00:17;;;;;;;18.50;9.13;;;5.00;99.90;;;;;;5068882;28;20063;-73
2023/11/27 05:02:45;;;;;;;15.18;8.60;;;5.00;99.90;;;;;;5069183;28;20028;-73
2023/11/27 05:05:14;;;;;;;15.15;9.82;;;5.00;99.90;;;;;;5068372;28;20493;-72
2023/11/27 05:07:40;;;;;;;15.27;9.55;;;5.00;99.90;;;;;;5068848;28;20032;-73
2023/11/27 05:10:07;;;;;;;14.27;8.77;;;5.00;99.90;;;;;;5068351;28;20067;-72
2023/11/27 05:12:33;;;;;;;16.35;9.38;;;5.00;99.90;;;;;;5068639;28;20103;-73
2023/11/27 05:14:58;;;;;;;18.45;9.15;;;5.00;99.90;;;;;;5068446;28;20112;-72
2023/11/27 05:17:24;;;;;;;17.10;8.70;;;5.00;99.90;;;;;;5068845;28;20441;-73
2023/11/27 05:19:49;;;;;;;13.05;8.20;;;4.90;99.90;;;;;;5068441;28;20523;-73
2023/11/27 05:22:15;;;;;;;15.98;8.10;;;5.00;99.90;;;;;;5068683;28;20104;-73
2023/11/27 05:24:41;;;;;;;16.02;7.43;;;5.00;99.90;;;;;;5068011;28;20028;-73
2023/11/27 05:27:06;;;;;;;13.30;7.75;;;4.90;99.90;;;;;;5068481;28;20103;-73
2023/11/27 05:29:32;;;;;;;13.02;8.45;;;4.90;99.90;;;;;;5068210;28;20116;-73
2023/11/27 05:31:58;;;;;;;12.48;8.00;;;4.90;99.90;;;;;;5061321;28;20391;-73
2023/11/27 05:34:23;;;;;;;14.02;8.10;;;4.90;99.90;;;;;;5068258;28;20036;-73
2023/11/27 05:36:49;;;;;;;13.10;7.53;;;4.90;99.90;;;;;;5068264;28;20028;-73
2023/11/27 05:39:15;;;;;;;14.68;7.95;;;4.90;99.90;;;;;;5076452;28;20063;-73
2023/11/27 05:41:41;;;;;;;14.70;7.13;;;4.90;99.90;;;;;;5067946;28;20033;-73
2023/11/27 05:44:07;;;;;;;11.23;7.28;;;4.90;99.90;;;;;;5067989;28;20031;-73
2023/11/27 05:46:33;;;;;;;12.18;8.02;;;4.90;99.90;;;;;;5052843;28;20020;-73
2023/11/27 05:48:59;;;;;;;13.02;6.85;;;4.90;99.90;;;;;;5067956;28;20396;-72
2023/11/27 05:51:25;;;;;;;12.50;7.20;;;4.90;99.90;;;;;;5068116;28;20104;-72
2023/11/27 05:53:51;;;;;;;9.88;6.60;;;4.90;99.90;;;;;;5067571;28;20032;-73
2023/11/27 05:56:17;;;;;;;10.55;6.30;;;4.90;99.90;;;;;;5066501;28;20406;-73
2023/11/27 05:58:42;;;;;;;10.48;7.05;;;4.90;99.90;;;;;;5067347;28;20052;-72
2023/11/27 06:01:08;;;;;;;12.35;7.13;;;4.80;99.90;;;;;;5067856;28;20421;-73
2023/11/27 06:03:36;;;;;;;12.63;7.13;;;4.80;99.90;;;;;;5056058;28;20032;-72
2023/11/27 06:06:07;;;;;;;12.63;6.85;;;4.80;99.90;;;;;;5067642;28;20500;-73
2023/11/27 06:08:33;;;;;;;11.23;6.55;;;4.80;99.90;;;;;;5067667;28;20028;-73
2023/11/27 06:11:01;;;;;;;16.48;7.40;;;4.90;99.90;;;;;;5067436;28;20381;-73
2023/11/27 06:13:26;;;;;;;10.82;7.18;;;4.90;99.90;;;;;;5067770;28;20028;-72
2023/11/27 06:15:52;;;;;;;12.95;6.88;;;4.90;99.90;;;;;;5051361;28;20028;-73
2023/11/27 06:18:18;;;;;;;10.02;6.93;;;4.90;99.90;;;;;;5067794;28;20044;-72
2023/11/27 06:20:43;;;;;;;10.63;6.53;;;4.90;99.90;;;;;;5066976;28;20028;-73
2023/11/27 06:23:09;;;;;;;12.45;6.82;;;4.90;99.90;;;;;;5067496;28;20040;-73
2023/11/27 06:25:35;;;;;;;12.23;7.45;;;4.90;99.90;;;;;;5067054;28;20043;-73
2023/11/27 06:28:02;;;;;;;11.05;6.43;;;4.90;99.90;;;;;;5067551;28;20047;-73
2023/11/27 06:30:28;;;;;;;12.70;6.53;;;4.90;99.90;;;;;;5067013;28;20052;-73
2023/11/27 06:32:54;;;;;;;10.65;6.30;;;4.90;99.90;;;;;;5067443;28;20273;-73
2023/11/27 06:35:19;;;;;;;13.20;6.20;;;4.90;99.90;;;;;;5066813;28;20021;-73
2023/11/27 06:37:45;;;;;;;9.93;6.30;;;4.90;99.90;;;;;;5066213;28;20024;-73
2023/11/27 06:40:16;;;;;;;10.68;5.30;;;4.90;99.90;;;;;;5039080;28;20052;-72
2023/11/27 06:42:42;;;;;;;14.45;6.22;;;4.90;99.90;;;;;;5067204;28;20082;-72
2023/11/27 06:45:10;;;;;;;9.23;5.55;;;4.90;99.90;;;;;;5066241;28;20045;-72
2023/11/27 06:47:36;;;;;;;9.20;4.70;;;4.90;99.90;;;;;;5066953;28;20582;-72
2023/11/27 06:50:02;;;;;;;8.05;5.00;;;4.90;99.90;;;;;;5066405;28;20054;-73
2023/11/27 06:52:28;;;;;;;11.07;5.00;;;4.90;99.90;;;;;;5056481;28;20032;-73
2023/11/27 06:54:54;;;;;;;8.32;5.25;;;4.90;99.90;;;;;;5065990;28;20024;-73
2023/11/27 06:57:19;;;;;;;7.50;4.78;;;4.80;99.90;;;;;;5066513;28;20016;-72
2023/11/27 06:59:45;;;;;;;7.57;5.03;;;4.80;99.90;;;;;;5066431;28;20107;-73
2023/11/27 07:02:10;;;;;;;9.07;5.13;;;4.80;99.90;;;;;;5066787;28;20478;-73
2023/11/27 07:04:38;;;;;;;8.13;4.68;;;4.80;99.90;;;;;;5064292;28;20074;-72
2023/11/27 07:07:05;;;;;;;8.13;4.85;;;4.80;99.90;;;;;;5048276;28;20460;-73
2023/11/27 07:09:30;;;;;;;8.90;4.75;;;4.80;99.90;;;;;;5065708;28;20024;-73
2023/11/27 07:11:56;;;;;;;8.55;5.30;;;4.80;99.90;;;;;;5066794;28;20470;-72
2023/11/27 07:14:22;;;;;;;9.43;5.32;;;4.80;99.90;;;;;;5065712;28;20021;-73
2023/11/27 07:16:47;;;;;;;8.73;4.80;;;4.80;99.90;;;;;;5065891;28;20469;-72
2023/11/27 07:19:13;;;;;;;8.75;4.78;;;4.80;99.90;;;;;;5066223;28;20032;-73
2023/11/27 07:21:38;;;;;;;9.43;5.13;;;4.70;99.90;;;;;;5065512;28;20035;-73
2023/11/27 07:24:04;;;;;;;10.38;5.05;;;4.70;99.90;;;;;;5065834;28;20090;-72
2023/11/27 07:26:30;;;;;;;10.07;4.93;;;4.70;99.90;;;;;;5078135;28;20120;-73
2023/11/27 07:28:57;;;;;;;8.30;4.72;;;4.70;99.90;;;;;;5066612;28;20366;-73
2023/11/27 07:31:27;;;;;;;8.07;4.22;;;4.70;99.90;;;;;;5066078;28;20512;-73
2023/11/27 07:33:55;;;;;;;9.20;4.63;;;4.70;99.90;;;;;;5066444;28;20024;-73
2023/11/27 07:36:22;;;;;;;9.48;4.90;;;4.70;99.90;;;;;;5063392;28;20063;-73
2023/11/27 07:38:48;;;;;;;11.02;5.13;;;4.70;99.90;;;;;;5065673;28;20055;-73
2023/11/27 07:41:14;;;;;;;7.32;4.88;;;4.70;99.90;;;;;;5065995;28;20028;-73
2023/11/27 07:43:40;;;;;;;9.25;4.90;;;4.70;99.90;;;;;;5065926;28;20040;-73
2023/11/27 07:46:15;;;;;;;6.88;4.60;;;4.70;99.90;;;;;;5065388;28;20028;-72
2023/11/27 07:48:44;;;;;;;8.70;5.05;;;4.70;99.90;;;;;;5065200;28;20125;-72
2023/11/27 07:51:10;;;;;;;8.77;4.75;;;4.70;99.90;;;;;;5066107;28;20021;-72
2023/11/27 07:53:36;;;;;;;9.52;5.25;;;4.70;99.90;;;;;;5051156;28;20730;-72
2023/11/27 07:56:02;;;;;;;9.27;5.10;;;4.70;99.90;;;;;;5065401;28;20952;-72
2023/11/27 07:58:28;;;;;;;8.32;4.95;;;4.70;99.90;;;;;;5066557;28;20103;-73
2023/11/27 08:00:54;;;;;;;8.02;5.05;;;4.70;99.90;;;;;;5057441;28;20519;-73
2023/11/27 08:03:20;;;;;;;8.70;5.40;;;4.70;99.90;;;;;;5066051;28;20071;-73
2023/11/27 08:05:47;;;;;;;7.63;5.00;;;4.70;99.90;;;;;;5049153;28;20026;-73
2023/11/27 08:08:14;;;;;;;8.52;5.07;;;4.70;99.90;;;;;;5065494;28;20021;-74
2023/11/27 08:10:40;;;;;;;9.52;5.45;;;4.70;99.90;;;;;;5061384;28;20024;-73
2023/11/27 08:13:06;;;;;;;12.35;6.18;;;4.70;99.90;;;;;;5065903;28;20426;-73
2023/11/27 08:15:32;;;;;;;10.23;5.65;;;4.70;99.90;;;;;;5065608;28;20495;-73
2023/11/27 08:18:02;;;;;;;9.02;5.57;;;4.70;99.90;;;;;;5065655;28;20047;-72
2023/11/27 08:20:32;;;;;;;9.52;5.43;;;4.70;99.90;;;;;;5052959;28;20029;-72
2023/11/27 08:22:58;;;;;;;10.50;6.40;;;4.70;99.90;;;;;;5064935;28;20825;-72
2023/11/27 08:25:27;;;;;;;11.07;6.25;;;4.70;99.90;;;;;;5065373;28;20050;-72
2023/11/27 08:27:55;;;;;;;13.07;6.63;;;4.80;99.90;;;;;;5065788;28;20032;-73
2023/11/27 08:30:22;;;;;;;12.23;6.50;;;4.80;99.90;;;;;;5057234;28;20032;-73
2023/11/27 08:32:50;;;;;;;10.68;5.88;;;4.80;99.90;;;;;;5062816;28;20032;-73
2023/11/27 08:35:19;;;;;;;12.18;7.05;;;4.90;99.90;;;;;;5065430;28;20040;-73
2023/11/27 08:37:45;;;;;;;9.70;6.65;;;4.80;99.90;;;;;;5065570;28;20024;-73
2023/11/27 08:40:14;;;;;;;11.27;6.97;;;4.90;99.90;;;;;;5079574;28;20048;-73
2023/11/27 08:42:40;;;;;;;13.38;7.18;;;4.90;99.90;;;;;;5082188;28;20115;-73
2023/11/27 08:45:15;;;;;;;13.10;7.13;;;4.90;99.90;;;;;;5055188;28;20032;-73
2023/11/27 08:47:44;;;;;;;10.30;7.13;;;4.90;99.90;;;;;;5066809;28;20111;-73
2023/11/27 08:50:13;;;;;;;12.48;6.93;;;4.90;99.90;;;;;;5055582;28;20032;-73
2023/11/27 08:52:41;;;;;;;14.18;7.45;;;4.90;99.90;;;;;;5052752;28;20449;-73
2023/11/27 08:55:08;;;;;;;11.48;6.63;;;4.90;99.90;;;;;;5072153;28;20021;-73
2023/11/27 08:57:34;;;;;;;10.07;6.57;;;4.90;99.90;;;;;;5060174;28;20083;-72
2023/11/27 09:00:05;;;;;;;10.75;6.38;;;5.00;99.90;;;;;;5080469;28;20055;-73
2023/11/27 09:02:31;;;;;;;;;;;5.00;99.90;;;;;;5075577;28;20040;-73
2023/11/27 09:04:57;;;;;;;10.98;6.35;;;5.00;99.90;;;;;;5078075;28;20350;-72
2023/11/27 09:07:23;;;;;;;11.30;7.00;;;5.00;99.90;;;;;;5083139;28;20437;-73
2023/11/27 09:09:49;;;;;;;11.40;6.95;;;5.00;99.90;;;;;;5069155;28;20094;-73
2023/11/27 09:12:15;;;;;;;10.23;6.90;;;5.00;99.90;;;;;;5051586;28;20048;-72
2023/11/27 09:14:42;;;;;;;10.82;6.45;;;5.00;99.90;;;;;;5081847;28;20054;-72
2023/11/27 09:17:08;;;;;;;12.77;6.80;;;5.00;99.90;;;;;;5082063;28;20565;-73
2023/11/27 09:19:33;;;;;;;12.98;7.50;;;5.00;99.90;;;;;;5074025;28;20032;-72
2023/11/27 09:22:00;;;;;;;12.80;7.47;;;5.00;99.90;;;;;;5077243;28;20024;-73
2023/11/27 09:24:26;;;;;;;13.48;6.97;;;5.00;99.90;;;;;;5081986;28;20029;-73
2023/11/27 09:26:52;;;;;;;13.30;6.88;;;5.00;99.90;;;;;;5067304;28;20607;-72
2023/11/27 09:29:18;;;;;;;12.40;7.00;;;5.00;99.90;;;;;;5066282;28;20040;-73
2023/11/27 09:31:44;;;;;;;12.05;6.97;;;5.00;99.90;;;;;;5048574;28;20354;-72
2023/11/27 09:34:10;;;;;;;13.88;7.82;;;5.00;99.90;;;;;;5067427;28;20604;-73
2023/11/27 09:36:35;;;;;;;13.15;7.65;;;5.00;99.90;;;;;;5049292;28;20437;-72
2023/11/27 09:39:01;;;;;;;8.50;5.97;;;5.00;99.90;;;;;;5060962;28;20049;-72
2023/11/27 09:41:27;;;;;;;9.57;6.63;;;5.00;99.90;;;;;;5068137;28;20465;-72
2023/11/27 09:43:52;;;;;;;11.32;6.40;;;5.10;99.90;;;;;;5067635;28;20489;-73
2023/11/27 09:46:21;;;;;;;12.02;6.70;;;5.10;99.90;;;;;;5049569;28;20104;-72
2023/11/27 09:48:50;;;;;;;11.20;6.65;;;5.10;99.90;;;;;;5067596;28;20063;-72
2023/11/27 09:51:17;;;;;;;9.80;6.47;;;5.10;99.90;;;;;;5051905;28;20045;-73
2023/11/27 09:53:51;;;;;;;11.18;6.65;;;5.10;99.90;;;;;;5067298;28;20125;-72
2023/11/27 09:56:21;;;;;;;10.00;6.50;;;5.10;99.90;;;;;;5067347;28;20024;-72
2023/11/27 09:58:47;;;;;;;9.10;5.90;;;5.10;99.90;;;;;;5067580;28;20035;-73
2023/11/27 10:01:13;;;;;;;9.02;6.13;;;5.10;99.90;;;;;;5065912;28;20020;-73
2023/11/27 10:03:41;;;;;;;11.02;6.85;;;5.20;99.90;;;;;;5067152;28;20021;-73
2023/11/27 10:06:07;;;;;;;9.35;6.43;;;5.20;99.90;;;;;;5049134;28;20031;-72
2023/11/27 10:08:33;;;;;;;10.60;6.63;;;5.20;99.90;;;;;;5067690;28;20083;-72
2023/11/27 10:10:59;;;;;;;12.20;6.57;;;5.20;99.90;;;;;;5049075;28;20008;-72
2023/11/27 10:13:34;;;;;;;12.40;6.35;;;5.20;99.90;;;;;;5066995;28;20363;-72
2023/11/27 10:16:09;;;;;;;13.43;7.10;;;5.20;99.90;;;;;;5066839;28;20107;-72
2023/11/27 10:18:35;;;;;;;12.07;6.40;;;5.20;99.90;;;;;;5063927;28;20035;-72
2023/11/27 10:21:15;;;;;;;11.52;6.30;;;5.30;99.90;;;;;;5065871;28;20111;-72
2023/11/27 10:23:41;;;;;;;10.23;5.93;;;5.20;99.90;;;;;;5048956;28;20045;-73
2023/11/27 10:26:07;;;;;;;11.90;6.70;;;5.20;99.90;;;;;;5063071;28;20021;-72
2023/11/27 10:28:43;;;;;;;12.35;6.28;;;5.30;99.90;;;;;;5066839;28;20470;-72
2023/11/27 10:31:08;;;;;;;15.85;8.10;;;5.30;99.90;;;;;;5048822;28;20025;-72
2023/11/27 10:33:37;;;;;;;11.18;5.80;;;5.30;99.90;;;;;;5061923;28;20032;-72
2023/11/27 10:36:05;;;;;;;13.57;6.85;;;5.30;99.90;;;;;;5063596;28;20038;-72
2023/11/27 10:38:31;;;;;;;11.98;7.20;;;5.30;99.90;;;;;;5066239;28;20783;-73
2023/11/27 10:40:59;;;;;;;10.85;6.10;;;5.30;99.90;;;;;;5067027;28;20024;-73
2023/11/27 10:43:25;;;;;;;11.10;6.78;;;5.40;99.90;;;;;;5066828;28;20031;-73
2023/11/27 10:45:52;;;;;;;11.27;6.70;;;5.40;99.90;;;;;;5066239;28;20082;-72
2023/11/27 10:48:19;;;;;;;12.80;6.82;;;5.40;99.90;;;;;;5067051;28;20436;-72
2023/11/27 10:50:48;;;;;;;10.38;7.00;;;5.40;99.90;;;;;;5064372;28;20115;-72
2023/11/27 10:53:21;;;;;;;10.35;6.97;;;5.40;99.90;;;;;;5063248;28;20096;-73
2023/11/27 10:55:48;;;;;;;12.75;7.65;;;5.40;99.90;;;;;;5048230;28;20443;-72
2023/11/27 10:58:14;;;;;;;12.20;6.82;;;5.50;99.90;;;;;;5066690;28;20020;-72
2023/11/27 11:00:39;;;;;;;11.02;6.45;;;5.50;99.90;;;;;;5066131;28;20017;-72
2023/11/27 11:03:14;;;;;;;12.52;7.47;;;5.50;99.90;;;;;;5066191;28;20059;-73
2023/11/27 11:05:50;;;;;;;9.68;5.93;;;5.50;99.90;;;;;;5065509;28;20039;-73
2023/11/27 11:08:26;;;;;;;10.95;6.25;;;5.50;99.90;;;;;;5066412;28;20024;-72
2023/11/27 11:10:54;;;;;;;11.15;6.65;;;5.60;99.90;;;;;;5048316;28;20078;-72
2023/11/27 11:13:21;;;;;;;11.73;7.07;;;5.50;99.90;;;;;;5048172;28;20039;-72
2023/11/27 11:15:50;;;;;;;11.45;6.45;;;5.50;99.90;;;;;;5051735;28;20033;-72
2023/11/27 11:18:25;;;;;;;13.40;7.38;;;5.60;99.90;;;;;;5066343;28;20025;-72
2023/11/27 11:20:59;;;;;;;12.07;7.28;;;5.60;99.90;;;;;;5066074;28;20516;-72
2023/11/27 11:23:35;;;;;;;9.40;6.65;;;5.60;99.90;;;;;;5066483;28;20020;-73
2023/11/27 11:26:47;;;;;;;12.77;6.25;;;5.60;99.90;;;;;;5066310;28;20033;-72
2023/11/27 11:29:34;;;;;;;11.10;6.38;;;5.60;99.90;;;;;;5064804;28;20040;-72
2023/11/27 11:32:04;;;;;;;11.13;6.35;;;5.60;99.90;;;;;;5058151;28;20075;-73
2023/11/27 11:34:53;;;;;;;10.35;6.18;;;5.70;99.90;;;;;;5065586;28;20561;-73
2023/11/27 11:37:20;;;;;;;13.75;6.45;;;5.70;99.90;;;;;;5066475;28;20032;-73
2023/11/27 11:39:49;;;;;;;12.82;7.47;;;5.70;99.90;;;;;;5064030;28;20052;-72
2023/11/27 11:42:17;;;;;;;9.38;5.93;;;5.70;99.90;;;;;;5062710;28;20766;-73
2023/11/27 11:45:05;;;;;;;12.20;7.20;;;5.70;99.90;;;;;;5055556;28;20017;-72
2023/11/27 11:47:33;;;;;;;10.45;6.45;;;5.80;99.90;;;;;;5056348;28;20041;-72
2023/11/27 11:50:31;;;;;;;9.15;5.60;;;5.80;99.90;;;;;;5047736;28;20131;-72
2023/11/27 11:53:18;;;;;;;12.50;6.95;;;5.80;99.90;;;;;;5045825;28;20032;-72
2023/11/27 11:55:47;;;;;;;10.10;6.13;;;5.80;99.90;;;;;;5065186;28;20048;-73
2023/11/27 11:58:19;;;;;;;9.45;5.88;;;5.80;99.90;;;;;;5047969;28;20394;-73
2023/11/27 12:00:46;;;;;;;9.88;5.70;;;5.80;99.90;;;;;;5064118;28;20035;-73
2023/11/27 12:03:17;;;;;;;7.68;5.43;;;5.80;99.90;;;;;;5065939;28;20378;-73
2023/11/27 12:05:57;;;;;;;;;;;5.80;99.90;;;;;;5047442;28;20052;-73
2023/11/27 12:08:31;;;;;;;12.02;6.53;;;5.80;99.90;;;;;;5066582;28;19909;-73
2023/11/27 12:10:58;;;;;;;14.85;7.35;;;5.80;99.90;;;;;;5065372;28;20067;-73
2023/11/27 12:13:33;;;;;;;12.00;6.25;;;5.80;99.90;;;;;;5066494;28;20627;-73
2023/11/27 12:16:07;;;;;;;10.35;6.35;;;5.90;99.90;;;;;;5069143;28;20499;-73
2023/11/27 12:18:35;;;;;;;10.30;6.60;;;5.90;99.90;;;;;;5064790;28;20021;-73
2023/11/27 12:21:05;;;;;;;8.70;5.28;;;5.90;99.90;;;;;;5068949;28;20798;-73
2023/11/27 12:23:38;;;;;;;12.73;6.60;;;5.90;99.90;;;;;;5069052;28;20025;-72
2023/11/27 12:26:06;;;;;;;11.40;5.95;;;6.00;99.90;;;;;;5065785;28;20021;-72
2023/11/27 12:28:34;;;;;;;11.35;6.30;;;6.00;99.90;;;;;;5069347;28;20100;-73
2023/11/27 12:31:03;;;;;;;10.73;6.10;;;6.00;99.90;;;;;;5067973;28;20020;-73
2023/11/27 12:33:28;;;;;;;12.15;6.65;;;6.00;99.90;;;;;;5068319;28;20078;-73
2023/11/27 12:35:54;;;;;;;12.55;6.78;;;6.10;99.90;;;;;;5067662;28;20020;-73
2023/11/27 12:38:20;;;;;;;13.50;7.57;;;6.10;99.90;;;;;;5063592;28;20128;-72
2023/11/27 12:40:47;;;;;;;9.48;5.60;;;6.10;99.90;;;;;;5069077;28;20060;-72
2023/11/27 12:43:22;;;;;;;15.02;7.35;;;6.10;99.90;;;;;;5050710;28;20024;-72
2023/11/27 12:45:57;;;;;;;10.13;5.82;;;6.10;99.90;;;;;;5050713;28;20136;-72
2023/11/27 12:48:23;;;;;;;9.70;6.05;;;6.20;99.90;;;;;;5069452;28;20032;-73